createdAt,value
2018-04-12T00:02:02.504Z,4.98
2018-04-12T00:04:29.652Z,4.98
2018-04-12T00:06:56.077Z,5.04
2018-04-12T00:09:22.081Z,4.88
2018-04-12T00:11:48.586Z,4.90
2018-04-12T00:14:14.466Z,4.96
2018-04-12T00:16:40.294Z,4.99
2018-04-12T00:19:07.556Z,5.04
2018-04-12T00:21:34.275Z,5.03
2018-04-12T00:24:00.102Z,5.05
2018-04-12T00:26:25.917Z,5.10
2018-04-12T00:28:51.718Z,4.98
2018-04-12T00:31:18.609Z,4.98
2018-04-12T00:33:44.418Z,5.08
2018-04-12T00:36:10.241Z,5.11
2018-04-12T00:38:36.856Z,5.02
2018-04-12T00:41:02.690Z,4.95
2018-04-12T00:43:29.036Z,5.01
2018-04-12T00:45:55.109Z,5.05
2018-04-12T00:48:20.909Z,5.08
2018-04-12T00:50:46.713Z,5.04
2018-04-12T00:53:12.610Z,5.03
2018-04-12T00:55:38.420Z,5.02
2018-04-12T00:58:05.245Z,4.90
2018-04-12T01:00:31.098Z,4.96
2018-04-12T01:02:57.509Z,5.18
2018-04-12T01:05:24.154Z,5.14
2018-04-12T01:07:50.347Z,5.22
2018-04-12T01:10:17.241Z,5.20
2018-04-12T01:12:43.025Z,5.28
2018-04-12T01:15:08.865Z,5.24
2018-04-12T01:17:34.725Z,5.28
2018-04-12T01:20:00.579Z,5.23
2018-04-12T01:22:26.417Z,5.24
2018-04-12T01:24:52.237Z,5.25
2018-04-12T01:27:18.160Z,5.32
2018-04-12T01:29:43.960Z,5.28
2018-04-12T01:32:09.797Z,5.21
2018-04-12T01:34:36.586Z,5.17
2018-04-12T01:37:02.442Z,5.12
2018-04-12T01:39:28.283Z,5.20
2018-04-12T01:41:54.102Z,5.31
2018-04-12T01:44:19.942Z,5.27
2018-04-12T01:46:46.993Z,5.25
2018-04-12T01:49:13.389Z,5.32
2018-04-12T01:51:40.137Z,5.33
2018-04-12T01:54:06.016Z,5.25
2018-04-12T01:56:31.847Z,5.36
2018-04-12T01:58:58.010Z,5.35
2018-04-12T02:01:23.820Z,5.36
2018-04-12T02:03:49.681Z,5.30
2018-04-12T02:06:15.488Z,5.24
2018-04-12T02:08:41.294Z,5.42
2018-04-12T02:11:07.253Z,5.32
2018-04-12T02:13:40.187Z,5.28
2018-04-12T02:16:06.031Z,5.26
2018-04-12T02:18:31.880Z,5.32
2018-04-12T02:20:57.694Z,5.43
2018-04-12T02:23:24.168Z,5.37
2018-04-12T02:25:50.122Z,5.32
2018-04-12T02:28:15.933Z,5.43
2018-04-12T02:30:41.725Z,5.40
2018-04-12T02:33:07.566Z,5.34
2018-04-12T02:35:33.391Z,5.37
2018-04-12T02:37:59.197Z,5.37
2018-04-12T02:40:25.022Z,5.19
2018-04-12T02:42:50.813Z,5.32
2018-04-12T02:45:16.589Z,5.19
2018-04-12T02:47:42.509Z,5.12
2018-04-12T02:50:08.329Z,5.15
2018-04-12T02:52:34.118Z,5.24
2018-04-12T02:54:59.934Z,5.22
2018-04-12T02:57:25.725Z,5.08
2018-04-12T02:59:51.536Z,4.98
2018-04-12T03:02:17.365Z,5.04
2018-04-12T03:04:43.161Z,5.04
2018-04-12T03:07:08.950Z,5.06
2018-04-12T03:09:34.781Z,5.15
2018-04-12T03:12:00.594Z,5.12
2018-04-12T03:14:26.379Z,5.11
2018-04-12T03:16:52.818Z,4.97
2018-04-12T03:19:18.628Z,5.01
2018-04-12T03:21:44.418Z,5.03
2018-04-12T03:24:10.322Z,5.01
2018-04-12T03:26:36.117Z,4.93
2018-04-12T03:29:01.943Z,5.03
2018-04-12T03:31:28.045Z,4.99
2018-04-12T03:33:53.860Z,5.00
2018-04-12T03:36:19.654Z,4.88
2018-04-12T03:38:45.457Z,4.94
2018-04-12T03:41:11.244Z,4.92
2018-04-12T03:43:37.060Z,4.98
2018-04-12T03:46:02.857Z,5.01
2018-04-12T03:48:28.692Z,4.86
2018-04-12T03:50:54.564Z,4.94
2018-04-12T03:53:20.356Z,4.97
2018-04-12T03:55:46.142Z,4.95
2018-04-12T03:58:11.953Z,4.95
2018-04-12T04:00:37.762Z,4.94
2018-04-12T04:03:03.555Z,4.82
2018-04-12T04:05:29.347Z,4.89
2018-04-12T04:07:55.133Z,4.96
2018-04-12T04:10:20.931Z,5.02
2018-04-12T04:12:46.760Z,5.00
2018-04-12T04:15:25.015Z,5.03
2018-04-12T04:18:03.161Z,5.00
2018-04-12T04:20:41.178Z,5.10
2018-04-12T04:23:06.970Z,5.00
2018-04-12T04:25:32.788Z,5.01
2018-04-12T04:27:58.577Z,4.98
2018-04-12T04:30:25.177Z,4.97
2018-04-12T04:32:50.987Z,5.04
2018-04-12T04:35:16.783Z,5.03
2018-04-12T04:37:42.573Z,5.09
2018-04-12T04:40:08.383Z,5.01
2018-04-12T04:42:34.209Z,5.10
2018-04-12T04:45:00.055Z,5.25
2018-04-12T04:47:25.864Z,5.18
2018-04-12T04:49:51.656Z,5.22
2018-04-12T04:52:17.539Z,5.21
2018-04-12T04:54:43.328Z,5.12
2018-04-12T04:57:09.162Z,5.19
2018-04-12T04:59:34.982Z,5.24
2018-04-12T05:02:00.781Z,5.23
2018-04-12T05:04:26.578Z,5.24
2018-04-12T05:06:52.397Z,5.22
2018-04-12T05:09:18.199Z,5.27
2018-04-12T05:11:43.993Z,5.22
2018-04-12T05:14:09.821Z,5.16
2018-04-12T05:16:35.632Z,5.18
2018-04-12T05:19:01.429Z,5.33
2018-04-12T05:21:27.259Z,5.33
2018-04-12T05:23:53.061Z,5.42
2018-04-12T05:26:18.891Z,5.41
2018-04-12T05:28:44.786Z,5.45
2018-04-12T05:31:10.566Z,5.43
2018-04-12T05:33:36.354Z,5.47
2018-04-12T05:36:02.162Z,5.63
2018-04-12T05:38:28.006Z,5.59
2018-04-12T05:40:53.869Z,6.79
2018-04-12T05:43:19.890Z,7.01
2018-04-12T05:45:45.695Z,7.50
2018-04-12T05:48:11.491Z,7.39
2018-04-12T05:50:37.301Z,7.22
2018-04-12T05:53:03.114Z,7.07
2018-04-12T05:55:28.928Z,7.26
2018-04-12T05:57:54.739Z,7.50
2018-04-12T06:00:20.535Z,7.32
2018-04-12T06:02:46.321Z,6.58
2018-04-12T06:05:12.212Z,6.35
2018-04-12T06:07:38.015Z,6.42
2018-04-12T06:10:03.822Z,6.45
2018-04-12T06:12:29.652Z,6.46
2018-04-12T06:14:55.438Z,6.35
2018-04-12T06:17:21.231Z,6.39
2018-04-12T06:19:47.064Z,6.45
2018-04-12T06:22:13.179Z,6.53
2018-04-12T06:24:38.989Z,6.56
2018-04-12T06:27:04.789Z,6.63
2018-04-12T06:29:30.595Z,6.68
2018-04-12T06:31:56.407Z,6.74
2018-04-12T06:34:22.201Z,6.83
2018-04-12T06:36:47.993Z,6.90
2018-04-12T06:39:13.910Z,6.93
2018-04-12T06:41:39.751Z,6.97
2018-04-12T06:44:05.614Z,7.10
2018-04-12T06:46:31.455Z,7.13
2018-04-12T06:48:57.370Z,7.18
2018-04-12T06:51:23.158Z,7.22
2018-04-12T06:53:48.985Z,7.23
2018-04-12T06:56:14.846Z,7.33
2018-04-12T06:58:40.640Z,7.44
2018-04-12T07:01:06.439Z,7.39
2018-04-12T07:03:32.270Z,7.52
2018-04-12T07:05:58.071Z,7.50
2018-04-12T07:08:24.102Z,9.12
2018-04-12T07:10:49.966Z,9.05
2018-04-12T07:13:15.752Z,9.51
2018-04-12T07:15:41.542Z,8.79
2018-04-12T07:18:07.474Z,9.38
2018-04-12T07:20:33.270Z,8.84
2018-04-12T07:22:59.877Z,8.62
2018-04-12T07:25:26.560Z,8.52
2018-04-12T07:27:52.446Z,8.58
2018-04-12T07:30:18.275Z,8.54
2018-04-12T07:32:44.695Z,8.48
2018-04-12T07:35:10.618Z,8.47
2018-04-12T07:37:37.354Z,8.52
2018-04-12T07:40:03.191Z,8.58
2018-04-12T07:42:29.011Z,8.78
2018-04-12T07:44:55.665Z,8.81
2018-04-12T07:47:21.509Z,8.83
2018-04-12T07:49:47.771Z,8.82
2018-04-12T07:52:13.684Z,8.85
2018-04-12T07:54:39.546Z,8.99
2018-04-12T07:57:06.050Z,9.05
2018-04-12T07:59:31.911Z,9.07
2018-04-12T08:01:58.013Z,9.03
2018-04-12T08:04:23.886Z,8.94
2018-04-12T08:06:49.762Z,9.01
2018-04-12T08:09:16.348Z,9.06
2018-04-12T08:11:42.204Z,9.20
2018-04-12T08:14:08.006Z,9.34
2018-04-12T08:16:33.821Z,9.57
2018-04-12T08:18:59.610Z,9.71
2018-04-12T08:21:26.373Z,9.62
2018-04-12T08:23:52.233Z,9.70
2018-04-12T08:26:18.532Z,9.90
2018-04-12T08:28:45.294Z,9.96
2018-04-12T08:31:11.270Z,10.05
2018-04-12T08:33:37.537Z,10.06
2018-04-12T08:36:03.580Z,10.19
2018-04-12T08:38:29.437Z,10.15
2018-04-12T08:40:56.105Z,10.17
2018-04-12T08:43:21.962Z,10.36
2018-04-12T08:45:47.757Z,10.33
2018-04-12T08:48:13.570Z,10.51
2018-04-12T08:50:39.378Z,10.63
2018-04-12T08:53:05.182Z,10.67
2018-04-12T08:55:30.971Z,11.02
2018-04-12T08:57:56.791Z,11.01
2018-04-12T09:00:22.585Z,11.33
2018-04-12T09:02:48.369Z,11.19
2018-04-12T09:05:14.178Z,11.10
2018-04-12T09:07:39.978Z,11.23
2018-04-12T09:10:05.796Z,11.29
2018-04-12T09:12:31.608Z,12.67
2018-04-12T09:14:57.398Z,12.47
2018-04-12T09:17:23.214Z,12.54
2018-04-12T09:19:49.230Z,12.90
2018-04-12T09:22:15.058Z,12.60
2018-04-12T09:24:40.850Z,12.28
2018-04-12T09:27:06.965Z,12.71
2018-04-12T09:29:32.797Z,12.76
2018-04-12T09:31:58.620Z,13.44
2018-04-12T09:34:24.402Z,13.73
2018-04-12T09:36:50.314Z,13.44
2018-04-12T09:39:16.113Z,13.46
2018-04-12T09:41:41.927Z,13.32
2018-04-12T09:44:07.748Z,13.64
2018-04-12T09:46:33.547Z,13.65
2018-04-12T09:48:59.350Z,13.40
2018-04-12T09:51:25.122Z,13.09
2018-04-12T09:53:50.923Z,13.50
2018-04-12T09:56:16.896Z,13.39
2018-04-12T09:58:42.715Z,14.00
2018-04-12T10:01:11.431Z,14.36
2018-04-12T10:03:37.269Z,13.83
2018-04-12T10:06:04.970Z,14.34
2018-04-12T10:08:30.810Z,13.66
2018-04-12T10:10:56.604Z,14.13
2018-04-12T10:13:22.505Z,14.16
2018-04-12T10:15:48.338Z,13.60
2018-04-12T10:18:14.137Z,13.68
2018-04-12T10:20:40.520Z,13.38
2018-04-12T10:23:06.359Z,12.84
2018-04-12T10:25:32.167Z,13.06
2018-04-12T10:27:58.001Z,13.21
2018-04-12T10:30:24.445Z,13.26
2018-04-12T10:32:50.424Z,13.27
2018-04-12T10:35:17.004Z,13.37
2018-04-12T10:37:42.898Z,13.29
2018-04-12T10:40:08.830Z,13.07
2018-04-12T10:42:34.766Z,13.20
2018-04-12T10:45:03.187Z,13.88
2018-04-12T10:47:28.998Z,13.61
2018-04-12T10:49:54.807Z,13.65
2018-04-12T10:52:21.763Z,14.18
2018-04-12T10:54:47.587Z,14.14
2018-04-12T10:57:16.392Z,14.62
2018-04-12T10:59:42.287Z,14.49
2018-04-12T11:02:08.103Z,14.26
2018-04-12T11:04:33.992Z,14.42
2018-04-12T11:07:00.374Z,13.99
2018-04-12T11:09:26.278Z,13.77
2018-04-12T11:11:52.131Z,13.55
2018-04-12T11:14:17.949Z,13.45
2018-04-12T11:16:43.874Z,13.38
2018-04-12T11:19:09.717Z,13.48
2018-04-12T11:21:35.596Z,13.50
2018-04-12T11:24:02.642Z,13.61
2018-04-12T11:26:29.515Z,13.62
2018-04-12T11:28:55.355Z,13.84
2018-04-12T11:31:21.237Z,13.69
2018-04-12T11:33:47.074Z,13.53
2018-04-12T11:36:15.898Z,13.36
2018-04-12T11:38:41.782Z,13.47
2018-04-12T11:41:07.625Z,13.57
2018-04-12T11:43:33.435Z,13.65
2018-04-12T11:45:59.281Z,13.87
2018-04-12T11:48:27.924Z,13.97
2018-04-12T11:50:53.821Z,14.11
2018-04-12T11:53:19.885Z,14.21
2018-04-12T11:55:47.224Z,14.18
2018-04-12T11:58:13.048Z,13.94
2018-04-12T12:00:39.868Z,13.52
2018-04-12T12:03:06.082Z,13.74
2018-04-12T12:05:31.905Z,13.61
2018-04-12T12:07:57.721Z,13.61
2018-04-12T12:10:23.569Z,13.93
2018-04-12T12:12:49.387Z,13.80
2018-04-12T12:15:15.205Z,13.81
2018-04-12T12:17:41.021Z,13.64
2018-04-12T12:20:06.855Z,13.67
2018-04-12T12:22:32.657Z,13.92
2018-04-12T12:24:58.456Z,14.03
2018-04-12T12:27:25.117Z,14.05
2018-04-12T12:29:52.733Z,14.00
2018-04-12T12:32:18.545Z,14.06
2018-04-12T12:34:44.527Z,14.09
2018-04-12T12:37:10.409Z,13.82
2018-04-12T12:39:36.221Z,13.78
2018-04-12T12:42:03.007Z,13.93
2018-04-12T12:44:29.157Z,13.99
2018-04-12T12:46:54.970Z,13.82
2018-04-12T12:49:21.724Z,13.74
2018-04-12T12:51:48.870Z,13.56
2018-04-12T12:54:14.751Z,13.44
2018-04-12T12:56:40.558Z,13.30
2018-04-12T12:59:06.371Z,13.31
2018-04-12T13:01:32.194Z,13.10
2018-04-12T13:03:58.298Z,13.41
2018-04-12T13:06:25.102Z,13.12
2018-04-12T13:08:51.633Z,13.00
2018-04-12T13:11:17.474Z,13.05
2018-04-12T13:13:43.318Z,13.00
2018-04-12T13:16:09.140Z,13.55
2018-04-12T13:18:34.959Z,13.98
2018-04-12T13:21:00.777Z,13.26
2018-04-12T13:23:26.778Z,13.37
2018-04-12T13:25:52.919Z,13.19
2018-04-12T13:28:20.020Z,13.42
2018-04-12T13:30:45.854Z,14.02
2018-04-12T13:33:11.658Z,14.40
2018-04-12T13:35:37.442Z,15.39
2018-04-12T13:38:03.247Z,15.16
2018-04-12T13:40:29.143Z,15.00
2018-04-12T13:42:54.954Z,14.91
2018-04-12T13:45:21.296Z,15.20
2018-04-12T13:47:47.098Z,14.45
2018-04-12T13:50:12.954Z,14.26
2018-04-12T13:52:45.654Z,14.14
2018-04-12T13:55:11.498Z,14.62
2018-04-12T13:57:37.285Z,14.75
2018-04-12T14:00:03.095Z,14.45
2018-04-12T14:02:28.890Z,14.21
2018-04-12T14:04:54.661Z,14.07
2018-04-12T14:07:20.461Z,14.03
2018-04-12T14:09:46.265Z,14.12
2018-04-12T14:12:12.047Z,13.77
2018-04-12T14:14:37.857Z,13.71
2018-04-12T14:17:03.651Z,13.81
2018-04-12T14:19:29.427Z,13.84
2018-04-12T14:21:55.696Z,13.86
2018-04-12T14:24:22.818Z,13.57
2018-04-12T14:26:48.810Z,13.65
2018-04-12T14:29:14.613Z,13.70
2018-04-12T14:31:40.497Z,13.83
2018-04-12T14:34:06.552Z,13.80
2018-04-12T14:36:32.346Z,13.95
2018-04-12T14:38:58.124Z,13.69
2018-04-12T14:41:23.943Z,14.04
2018-04-12T14:43:49.742Z,14.03
2018-04-12T14:46:15.882Z,14.21
2018-04-12T14:48:41.696Z,14.32
2018-04-12T14:51:07.477Z,14.51
2018-04-12T14:53:33.304Z,14.49
2018-04-12T14:55:59.102Z,14.45
2018-04-12T14:58:24.899Z,14.70
2018-04-12T15:00:50.705Z,14.61
2018-04-12T15:03:16.501Z,14.09
2018-04-12T15:05:42.301Z,14.40
2018-04-12T15:08:08.101Z,14.57
2018-04-12T15:10:33.894Z,14.45
2018-04-12T15:12:59.946Z,14.69
2018-04-12T15:15:25.736Z,14.19
2018-04-12T15:17:51.524Z,14.19
2018-04-12T15:20:17.405Z,14.41
2018-04-12T15:22:43.190Z,14.37
2018-04-12T15:25:08.983Z,14.55
2018-04-12T15:27:34.811Z,14.85
2018-04-12T15:30:00.627Z,14.67
2018-04-12T15:32:26.411Z,14.45
2018-04-12T15:34:52.252Z,14.37
2018-04-12T15:37:18.047Z,14.11
2018-04-12T15:39:43.838Z,14.08
2018-04-12T15:42:09.898Z,14.06
2018-04-12T15:44:35.683Z,14.03
2018-04-12T15:47:01.502Z,14.09
2018-04-12T15:49:27.303Z,13.90
2018-04-12T15:51:53.360Z,13.87
2018-04-12T15:54:19.179Z,14.07
2018-04-12T15:56:44.971Z,13.93
2018-04-12T15:59:10.814Z,13.75
2018-04-12T16:01:36.625Z,13.80
2018-04-12T16:04:02.457Z,13.92
2018-04-12T16:06:28.265Z,14.45
2018-04-12T16:08:54.045Z,14.25
2018-04-12T16:11:19.833Z,14.07
2018-04-12T16:13:45.646Z,13.85
2018-04-12T16:16:11.448Z,13.66
2018-04-12T16:18:37.237Z,13.41
2018-04-12T16:21:03.069Z,13.37
2018-04-12T16:23:28.852Z,13.37
2018-04-12T16:25:54.663Z,13.41
2018-04-12T16:28:20.468Z,13.36
2018-04-12T16:30:46.268Z,13.28
2018-04-12T16:33:12.060Z,13.23
2018-04-12T16:35:37.870Z,13.17
2018-04-12T16:38:03.689Z,13.10
2018-04-12T16:40:29.471Z,13.06
2018-04-12T16:42:55.313Z,12.98
2018-04-12T16:45:21.141Z,12.98
2018-04-12T16:47:46.943Z,13.05
2018-04-12T16:50:12.875Z,12.96
2018-04-12T16:52:38.685Z,12.98
2018-04-12T16:55:04.481Z,12.92
2018-04-12T16:57:30.294Z,12.91
2018-04-12T16:59:56.133Z,12.77
2018-04-12T17:02:21.928Z,12.69
2018-04-12T17:04:48.013Z,12.64
2018-04-12T17:07:13.824Z,12.52
2018-04-12T17:09:39.642Z,12.95
2018-04-12T17:12:05.575Z,12.99
2018-04-12T17:14:31.384Z,12.58
2018-04-12T17:16:57.450Z,12.25
2018-04-12T17:19:23.650Z,12.08
2018-04-12T17:21:49.483Z,12.02
2018-04-12T17:24:15.351Z,11.87
2018-04-12T17:26:41.145Z,11.85
2018-04-12T17:29:06.950Z,11.60
2018-04-12T17:31:32.769Z,11.59
2018-04-12T17:33:58.741Z,11.98
2018-04-12T17:36:24.553Z,11.54
2018-04-12T17:38:50.669Z,12.15
2018-04-12T17:41:16.475Z,12.35
2018-04-12T17:43:42.258Z,11.75
2018-04-12T17:46:08.120Z,11.59
2018-04-12T17:48:33.919Z,11.28
2018-04-12T17:50:59.709Z,11.24
2018-04-12T17:53:25.500Z,11.12
2018-04-12T17:55:51.301Z,11.04
2018-04-12T17:58:17.095Z,10.95
2018-04-12T18:00:43.007Z,10.91
2018-04-12T18:03:08.819Z,11.35
2018-04-12T18:05:34.627Z,11.18
2018-04-12T18:08:00.440Z,10.92
2018-04-12T18:10:26.250Z,10.76
2018-04-12T18:12:52.070Z,10.94
2018-04-12T18:15:17.885Z,11.66
2018-04-12T18:17:43.702Z,11.47
2018-04-12T18:20:09.483Z,11.72
2018-04-12T18:22:35.298Z,11.99
2018-04-12T18:25:01.091Z,10.88
2018-04-12T18:27:26.888Z,10.52
2018-04-12T18:29:52.958Z,10.29
2018-04-12T18:32:18.749Z,10.15
2018-04-12T18:34:44.533Z,10.05
2018-04-12T18:37:10.314Z,10.05
2018-04-12T18:39:36.334Z,9.96
2018-04-12T18:42:02.136Z,9.82
2018-04-12T18:44:27.921Z,9.92
2018-04-12T18:46:54.097Z,9.68
2018-04-12T18:49:19.992Z,9.61
2018-04-12T18:51:46.038Z,9.63
2018-04-12T18:54:11.933Z,9.72
2018-04-12T18:56:37.734Z,9.61
2018-04-12T18:59:03.517Z,9.62
2018-04-12T19:01:29.381Z,9.66
2018-04-12T19:03:55.286Z,9.66
2018-04-12T19:06:21.089Z,9.65
2018-04-12T19:08:46.890Z,9.85
2018-04-12T19:11:12.727Z,9.82
2018-04-12T19:13:38.530Z,9.82
2018-04-12T19:16:04.340Z,9.97
2018-04-12T19:18:31.148Z,9.83
2018-04-12T19:20:56.938Z,9.64
2018-04-12T19:23:22.739Z,9.50
2018-04-12T19:25:48.794Z,9.47
2018-04-12T19:28:14.608Z,9.42
2018-04-12T19:30:40.440Z,9.38
2018-04-12T19:33:06.316Z,9.27
2018-04-12T19:35:33.413Z,9.39
2018-04-12T19:37:59.245Z,9.31
2018-04-12T19:40:25.412Z,9.33
2018-04-12T19:42:51.222Z,9.17
2018-04-12T19:45:17.067Z,9.31
2018-04-12T19:47:42.924Z,9.35
2018-04-12T19:50:08.762Z,9.24
2018-04-12T19:52:35.207Z,9.25
2018-04-12T19:55:01.636Z,9.24
2018-04-12T19:57:27.441Z,9.21
2018-04-12T19:59:53.263Z,9.02
2018-04-12T20:02:19.057Z,9.11
2018-04-12T20:04:44.864Z,9.07
2018-04-12T20:07:11.489Z,9.17
2018-04-12T20:09:37.290Z,9.03
2018-04-12T20:12:03.098Z,9.03
2018-04-12T20:14:28.921Z,9.04
2018-04-12T20:16:54.710Z,9.80
2018-04-12T20:19:20.529Z,10.97
2018-04-12T20:21:46.410Z,10.81
2018-04-12T20:24:13.573Z,10.41
2018-04-12T20:26:39.398Z,11.12
2018-04-12T20:29:05.231Z,10.29
2018-04-12T20:31:31.034Z,9.63
2018-04-12T20:33:56.858Z,9.49
2018-04-12T20:36:23.613Z,9.36
2018-04-12T20:38:50.435Z,9.22
2018-04-12T20:41:16.658Z,9.18
2018-04-12T20:43:42.494Z,9.24
2018-04-12T20:46:08.306Z,9.37
2018-04-12T20:48:34.108Z,9.17
2018-04-12T20:50:59.910Z,9.02
2018-04-12T20:53:26.013Z,9.02
2018-04-12T20:55:51.877Z,9.10
2018-04-12T20:58:17.706Z,9.01
2018-04-12T21:00:43.531Z,9.48
2018-04-12T21:03:09.345Z,9.27
2018-04-12T21:05:35.309Z,9.11
2018-04-12T21:08:01.224Z,9.08
2018-04-12T21:10:27.023Z,9.05
2018-04-12T21:12:52.819Z,9.16
2018-04-12T21:15:18.629Z,9.04
2018-04-12T21:17:44.424Z,9.02
2018-04-12T21:20:10.245Z,9.02
2018-04-12T21:22:36.101Z,8.98
2018-04-12T21:25:02.041Z,8.97
2018-04-12T21:27:28.077Z,8.97
2018-04-12T21:29:53.877Z,8.99
2018-04-12T21:32:19.721Z,9.04
2018-04-12T21:34:45.532Z,8.93
2018-04-12T21:37:11.605Z,8.91
2018-04-12T21:39:37.471Z,8.89
2018-04-12T21:42:03.302Z,8.86
2018-04-12T21:44:29.137Z,8.87
2018-04-12T21:46:54.969Z,9.30
2018-04-12T21:49:20.770Z,9.30
2018-04-12T21:51:46.599Z,9.35
2018-04-12T21:54:12.407Z,9.22
2018-04-12T21:56:38.206Z,9.23
2018-04-12T21:59:04.005Z,9.38
2018-04-12T22:01:29.841Z,9.38
2018-04-12T22:03:55.616Z,9.19
2018-04-12T22:06:21.434Z,9.22
2018-04-12T22:08:47.612Z,9.20
2018-04-12T22:11:13.405Z,8.94
2018-04-12T22:13:39.200Z,8.90
2018-04-12T22:16:05.038Z,8.93
2018-04-12T22:18:30.861Z,8.93
2018-04-12T22:20:56.654Z,8.89
2018-04-12T22:23:22.434Z,8.77
2018-04-12T22:25:48.437Z,8.80
2018-04-12T22:28:14.245Z,8.78
2018-04-12T22:30:40.024Z,8.76
2018-04-12T22:33:05.809Z,8.78
2018-04-12T22:35:31.623Z,8.80
2018-04-12T22:37:57.448Z,8.73
2018-04-12T22:40:23.240Z,8.75
2018-04-12T22:42:49.051Z,8.72
2018-04-12T22:45:14.880Z,8.75
2018-04-12T22:47:40.668Z,8.77
2018-04-12T22:50:06.441Z,8.70
2018-04-12T22:52:32.663Z,8.77
2018-04-12T22:54:58.454Z,8.74
2018-04-12T22:57:24.271Z,8.72
2018-04-12T22:59:50.099Z,8.79
2018-04-12T23:02:15.926Z,8.81
2018-04-12T23:04:41.708Z,8.82
2018-04-12T23:07:07.545Z,8.74
2018-04-12T23:09:33.344Z,8.78
2018-04-12T23:11:59.142Z,8.81
2018-04-12T23:14:24.968Z,8.82
2018-04-12T23:16:50.776Z,8.86
2018-04-12T23:19:16.584Z,8.82
2018-04-12T23:21:42.394Z,8.85
2018-04-12T23:24:08.182Z,8.90
2018-04-12T23:26:33.969Z,8.88
2018-04-12T23:28:59.789Z,8.85
2018-04-12T23:31:25.573Z,8.86
2018-04-12T23:33:51.381Z,8.83
2018-04-12T23:36:17.364Z,8.88
2018-04-12T23:38:43.145Z,8.98
2018-04-12T23:41:08.938Z,8.97
2018-04-12T23:43:34.729Z,8.95
2018-04-12T23:46:00.535Z,8.90
2018-04-12T23:48:26.449Z,8.91
2018-04-12T23:50:52.248Z,8.97
2018-04-12T23:53:18.081Z,8.98
2018-04-12T23:55:43.877Z,9.06
2018-04-12T23:58:09.685Z,8.99
